sensor_id;sensor_type;location;lat;lon;timestamp;P1;durP1;ratioP1;P2;durP2;ratioP2
16393;SDS011;8306;51.128;4.476;2023-05-16T00:00:00;9.27;;;2.37;;
16393;SDS011;8306;51.128;4.476;2023-05-16T00:02:27;9.67;;;2.60;;
16393;SDS011;8306;51.128;4.476;2023-05-16T00:04:53;8.80;;;2.27;;
16393;SDS011;8306;51.128;4.476;2023-05-16T00:07:20;9.60;;;2.83;;
16393;SDS011;8306;51.128;4.476;2023-05-16T00:09:46;7.50;;;2.17;;
16393;SDS011;8306;51.128;4.476;2023-05-16T00:12:13;12.77;;;2.73;;
16393;SDS011;8306;51.128;4.476;2023-05-16T00:14:39;9.33;;;2.43;;
16393;SDS011;8306;51.128;4.476;2023-05-16T00:17:05;11.20;;;3.30;;
16393;SDS011;8306;51.128;4.476;2023-05-16T00:19:32;9.47;;;2.67;;
16393;SDS011;8306;51.128;4.476;2023-05-16T00:21:58;8.67;;;2.37;;
16393;SDS011;8306;51.128;4.476;2023-05-16T00:24:25;15.33;;;3.03;;
16393;SDS011;8306;51.128;4.476;2023-05-16T00:26:51;8.23;;;2.67;;
16393;SDS011;8306;51.128;4.476;2023-05-16T00:29:18;7.57;;;2.37;;
16393;SDS011;8306;51.128;4.476;2023-05-16T00:31:44;6.97;;;2.13;;
16393;SDS011;8306;51.128;4.476;2023-05-16T00:34:11;7.00;;;2.53;;
16393;SDS011;8306;51.128;4.476;2023-05-16T00:36:37;15.03;;;2.37;;
16393;SDS011;8306;51.128;4.476;2023-05-16T00:39:04;6.27;;;2.20;;
16393;SDS011;8306;51.128;4.476;2023-05-16T00:41:30;13.60;;;2.97;;
16393;SDS011;8306;51.128;4.476;2023-05-16T00:43:57;8.47;;;2.20;;
16393;SDS011;8306;51.128;4.476;2023-05-16T00:46:23;10.17;;;2.57;;
16393;SDS011;8306;51.128;4.476;2023-05-16T00:48:50;10.63;;;2.40;;
16393;SDS011;8306;51.128;4.476;2023-05-16T00:51:16;6.90;;;2.10;;
16393;SDS011;8306;51.128;4.476;2023-05-16T00:53:43;7.87;;;2.43;;
16393;SDS011;8306;51.128;4.476;2023-05-16T00:56:09;7.83;;;2.27;;
16393;SDS011;8306;51.128;4.476;2023-05-16T00:58:36;8.87;;;2.40;;
16393;SDS011;8306;51.128;4.476;2023-05-16T01:01:02;9.43;;;2.30;;
16393;SDS011;8306;51.128;4.476;2023-05-16T01:03:29;11.33;;;2.63;;
16393;SDS011;8306;51.128;4.476;2023-05-16T01:05:56;10.53;;;2.53;;
16393;SDS011;8306;51.128;4.476;2023-05-16T01:08:22;8.93;;;2.17;;
16393;SDS011;8306;51.128;4.476;2023-05-16T01:16:29;6.60;;;2.10;;
16393;SDS011;8306;51.128;4.476;2023-05-16T01:19:19;10.63;;;2.53;;
16393;SDS011;8306;51.128;4.476;2023-05-16T01:21:52;7.07;;;2.30;;
16393;SDS011;8306;51.128;4.476;2023-05-16T01:24:22;11.20;;;2.50;;
16393;SDS011;8306;51.128;4.476;2023-05-16T01:26:53;9.00;;;2.77;;
16393;SDS011;8306;51.128;4.476;2023-05-16T01:29:20;10.63;;;2.20;;
16393;SDS011;8306;51.128;4.476;2023-05-16T01:31:46;9.23;;;2.63;;
16393;SDS011;8306;51.128;4.476;2023-05-16T01:34:13;11.70;;;2.40;;
16393;SDS011;8306;51.128;4.476;2023-05-16T01:39:08;11.13;;;2.03;;
16393;SDS011;8306;51.128;4.476;2023-05-16T01:47:01;8.70;;;2.60;;
16393;SDS011;8306;51.128;4.476;2023-05-16T01:49:34;8.77;;;1.83;;
16393;SDS011;8306;51.128;4.476;2023-05-16T01:52:00;10.03;;;2.60;;
16393;SDS011;8306;51.128;4.476;2023-05-16T01:54:28;8.67;;;1.90;;
16393;SDS011;8306;51.128;4.476;2023-05-16T01:56:53;8.13;;;2.33;;
16393;SDS011;8306;51.128;4.476;2023-05-16T01:59:19;7.67;;;2.10;;
16393;SDS011;8306;51.128;4.476;2023-05-16T02:01:45;9.90;;;2.70;;
16393;SDS011;8306;51.128;4.476;2023-05-16T02:04:12;6.43;;;2.13;;
16393;SDS011;8306;51.128;4.476;2023-05-16T02:06:38;6.77;;;2.10;;
16393;SDS011;8306;51.128;4.476;2023-05-16T02:09:05;7.27;;;2.17;;
16393;SDS011;8306;51.128;4.476;2023-05-16T02:11:31;7.53;;;2.10;;
16393;SDS011;8306;51.128;4.476;2023-05-16T02:13:58;11.90;;;2.27;;
16393;SDS011;8306;51.128;4.476;2023-05-16T02:16:24;8.27;;;2.70;;
16393;SDS011;8306;51.128;4.476;2023-05-16T02:18:51;11.20;;;2.70;;
16393;SDS011;8306;51.128;4.476;2023-05-16T02:21:17;7.33;;;2.00;;
16393;SDS011;8306;51.128;4.476;2023-05-16T02:23:44;7.60;;;2.00;;
16393;SDS011;8306;51.128;4.476;2023-05-16T02:26:10;8.27;;;2.13;;
16393;SDS011;8306;51.128;4.476;2023-05-16T02:28:37;8.83;;;2.17;;
16393;SDS011;8306;51.128;4.476;2023-05-16T02:31:06;15.30;;;2.60;;
16393;SDS011;8306;51.128;4.476;2023-05-16T02:33:30;9.33;;;2.10;;
16393;SDS011;8306;51.128;4.476;2023-05-16T02:35:56;9.13;;;2.13;;
16393;SDS011;8306;51.128;4.476;2023-05-16T02:38:23;7.97;;;2.10;;
16393;SDS011;8306;51.128;4.476;2023-05-16T02:40:49;9.63;;;1.70;;
16393;SDS011;8306;51.128;4.476;2023-05-16T02:43:16;7.90;;;2.30;;
16393;SDS011;8306;51.128;4.476;2023-05-16T02:45:43;9.40;;;1.90;;
16393;SDS011;8306;51.128;4.476;2023-05-16T02:48:09;8.07;;;1.97;;
16393;SDS011;8306;51.128;4.476;2023-05-16T02:50:35;7.50;;;2.20;;
16393;SDS011;8306;51.128;4.476;2023-05-16T02:53:01;9.27;;;2.27;;
16393;SDS011;8306;51.128;4.476;2023-05-16T02:55:28;11.67;;;2.27;;
16393;SDS011;8306;51.128;4.476;2023-05-16T02:57:54;9.63;;;2.00;;
16393;SDS011;8306;51.128;4.476;2023-05-16T03:00:21;7.00;;;2.03;;
16393;SDS011;8306;51.128;4.476;2023-05-16T03:02:47;7.27;;;2.30;;
16393;SDS011;8306;51.128;4.476;2023-05-16T03:05:14;8.10;;;2.37;;
16393;SDS011;8306;51.128;4.476;2023-05-16T03:07:40;9.13;;;1.90;;
16393;SDS011;8306;51.128;4.476;2023-05-16T03:10:07;9.90;;;2.47;;
16393;SDS011;8306;51.128;4.476;2023-05-16T03:12:33;10.17;;;2.20;;
16393;SDS011;8306;51.128;4.476;2023-05-16T03:15:00;9.97;;;2.70;;
16393;SDS011;8306;51.128;4.476;2023-05-16T03:17:26;11.47;;;2.23;;
16393;SDS011;8306;51.128;4.476;2023-05-16T03:19:53;8.50;;;1.80;;
16393;SDS011;8306;51.128;4.476;2023-05-16T03:22:19;8.30;;;2.30;;
16393;SDS011;8306;51.128;4.476;2023-05-16T03:24:46;9.20;;;2.20;;
16393;SDS011;8306;51.128;4.476;2023-05-16T03:27:12;7.30;;;2.10;;
16393;SDS011;8306;51.128;4.476;2023-05-16T03:29:39;6.10;;;1.63;;
16393;SDS011;8306;51.128;4.476;2023-05-16T03:32:05;6.77;;;1.77;;
16393;SDS011;8306;51.128;4.476;2023-05-16T03:34:32;7.50;;;2.27;;
16393;SDS011;8306;51.128;4.476;2023-05-16T03:36:58;7.77;;;1.93;;
16393;SDS011;8306;51.128;4.476;2023-05-16T03:39:25;12.07;;;2.53;;
16393;SDS011;8306;51.128;4.476;2023-05-16T03:41:51;11.73;;;2.10;;
16393;SDS011;8306;51.128;4.476;2023-05-16T03:44:18;7.07;;;2.20;;
16393;SDS011;8306;51.128;4.476;2023-05-16T03:46:44;5.70;;;1.87;;
16393;SDS011;8306;51.128;4.476;2023-05-16T03:49:11;8.07;;;2.10;;
16393;SDS011;8306;51.128;4.476;2023-05-16T03:51:37;5.77;;;1.50;;
16393;SDS011;8306;51.128;4.476;2023-05-16T03:54:04;10.60;;;2.20;;
16393;SDS011;8306;51.128;4.476;2023-05-16T03:56:30;6.97;;;2.17;;
16393;SDS011;8306;51.128;4.476;2023-05-16T03:58:56;6.30;;;1.83;;
16393;SDS011;8306;51.128;4.476;2023-05-16T04:01:23;8.30;;;1.87;;
16393;SDS011;8306;51.128;4.476;2023-05-16T04:03:49;10.27;;;2.17;;
16393;SDS011;8306;51.128;4.476;2023-05-16T04:06:16;7.17;;;2.10;;
16393;SDS011;8306;51.128;4.476;2023-05-16T04:08:42;5.20;;;1.70;;
16393;SDS011;8306;51.128;4.476;2023-05-16T04:11:09;5.43;;;1.83;;
16393;SDS011;8306;51.128;4.476;2023-05-16T04:13:35;8.20;;;2.00;;
16393;SDS011;8306;51.128;4.476;2023-05-16T04:16:02;11.27;;;2.00;;
16393;SDS011;8306;51.128;4.476;2023-05-16T04:18:28;6.13;;;2.20;;
16393;SDS011;8306;51.128;4.476;2023-05-16T04:20:55;5.20;;;2.07;;
16393;SDS011;8306;51.128;4.476;2023-05-16T04:23:21;7.33;;;1.97;;
16393;SDS011;8306;51.128;4.476;2023-05-16T04:25:48;6.90;;;1.57;;
16393;SDS011;8306;51.128;4.476;2023-05-16T04:28:14;8.80;;;2.37;;
16393;SDS011;8306;51.128;4.476;2023-05-16T04:30:41;6.27;;;1.83;;
16393;SDS011;8306;51.128;4.476;2023-05-16T04:33:07;5.73;;;1.77;;
16393;SDS011;8306;51.128;4.476;2023-05-16T04:35:34;5.80;;;1.80;;
16393;SDS011;8306;51.128;4.476;2023-05-16T04:38:00;4.73;;;1.23;;
16393;SDS011;8306;51.128;4.476;2023-05-16T04:40:27;4.87;;;1.73;;
16393;SDS011;8306;51.128;4.476;2023-05-16T04:42:53;5.13;;;1.67;;
16393;SDS011;8306;51.128;4.476;2023-05-16T04:45:20;6.67;;;1.70;;
16393;SDS011;8306;51.128;4.476;2023-05-16T04:47:46;4.83;;;1.53;;
16393;SDS011;8306;51.128;4.476;2023-05-16T04:50:13;5.67;;;1.43;;
16393;SDS011;8306;51.128;4.476;2023-05-16T04:52:39;5.23;;;1.73;;
16393;SDS011;8306;51.128;4.476;2023-05-16T04:55:06;7.37;;;1.83;;
16393;SDS011;8306;51.128;4.476;2023-05-16T04:57:32;4.80;;;1.33;;
16393;SDS011;8306;51.128;4.476;2023-05-16T04:59:59;5.27;;;1.80;;
16393;SDS011;8306;51.128;4.476;2023-05-16T05:02:25;5.20;;;1.67;;
16393;SDS011;8306;51.128;4.476;2023-05-16T05:04:52;5.23;;;1.80;;
16393;SDS011;8306;51.128;4.476;2023-05-16T05:07:18;7.00;;;1.83;;
16393;SDS011;8306;51.128;4.476;2023-05-16T05:09:44;5.10;;;1.60;;
16393;SDS011;8306;51.128;4.476;2023-05-16T05:12:11;6.63;;;1.63;;
16393;SDS011;8306;51.128;4.476;2023-05-16T05:14:37;5.10;;;1.63;;
16393;SDS011;8306;51.128;4.476;2023-05-16T05:17:04;4.87;;;1.57;;
16393;SDS011;8306;51.128;4.476;2023-05-16T05:19:30;5.03;;;1.83;;
16393;SDS011;8306;51.128;4.476;2023-05-16T05:21:57;5.67;;;1.83;;
16393;SDS011;8306;51.128;4.476;2023-05-16T05:24:23;6.60;;;1.80;;
16393;SDS011;8306;51.128;4.476;2023-05-16T05:26:50;7.03;;;1.93;;
16393;SDS011;8306;51.128;4.476;2023-05-16T05:29:16;7.03;;;2.13;;
16393;SDS011;8306;51.128;4.476;2023-05-16T05:31:43;6.27;;;1.53;;
16393;SDS011;8306;51.128;4.476;2023-05-16T05:34:09;6.50;;;1.63;;
16393;SDS011;8306;51.128;4.476;2023-05-16T05:36:36;4.23;;;1.87;;
16393;SDS011;8306;51.128;4.476;2023-05-16T05:39:02;4.77;;;1.83;;
16393;SDS011;8306;51.128;4.476;2023-05-16T05:41:29;3.60;;;1.40;;
16393;SDS011;8306;51.128;4.476;2023-05-16T05:43:55;4.83;;;1.53;;
16393;SDS011;8306;51.128;4.476;2023-05-16T05:46:22;5.17;;;1.70;;
16393;SDS011;8306;51.128;4.476;2023-05-16T05:48:48;3.60;;;1.60;;
16393;SDS011;8306;51.128;4.476;2023-05-16T05:51:15;5.77;;;1.80;;
16393;SDS011;8306;51.128;4.476;2023-05-16T05:53:41;4.90;;;1.53;;
16393;SDS011;8306;51.128;4.476;2023-05-16T05:56:08;8.30;;;1.40;;
16393;SDS011;8306;51.128;4.476;2023-05-16T05:58:35;4.70;;;1.47;;
16393;SDS011;8306;51.128;4.476;2023-05-16T06:01:00;4.47;;;1.60;;
16393;SDS011;8306;51.128;4.476;2023-05-16T06:03:27;6.93;;;2.20;;
16393;SDS011;8306;51.128;4.476;2023-05-16T06:05:53;4.47;;;1.83;;
16393;SDS011;8306;51.128;4.476;2023-05-16T06:08:20;6.37;;;2.00;;
16393;SDS011;8306;51.128;4.476;2023-05-16T06:10:46;4.03;;;1.80;;
16393;SDS011;8306;51.128;4.476;2023-05-16T06:13:13;5.60;;;1.80;;
16393;SDS011;8306;51.128;4.476;2023-05-16T06:15:39;5.10;;;1.70;;
16393;SDS011;8306;51.128;4.476;2023-05-16T06:18:06;4.63;;;1.67;;
16393;SDS011;8306;51.128;4.476;2023-05-16T06:20:32;5.63;;;1.60;;
16393;SDS011;8306;51.128;4.476;2023-05-16T06:23:00;3.73;;;1.60;;
16393;SDS011;8306;51.128;4.476;2023-05-16T06:25:25;5.13;;;1.60;;
16393;SDS011;8306;51.128;4.476;2023-05-16T06:27:52;4.53;;;1.70;;
16393;SDS011;8306;51.128;4.476;2023-05-16T06:30:18;5.47;;;1.63;;
16393;SDS011;8306;51.128;4.476;2023-05-16T06:32:45;5.10;;;1.50;;
16393;SDS011;8306;51.128;4.476;2023-05-16T06:35:11;3.73;;;1.33;;
16393;SDS011;8306;51.128;4.476;2023-05-16T06:37:38;3.60;;;1.40;;
16393;SDS011;8306;51.128;4.476;2023-05-16T06:40:04;3.27;;;1.10;;
16393;SDS011;8306;51.128;4.476;2023-05-16T06:42:31;4.03;;;1.27;;
16393;SDS011;8306;51.128;4.476;2023-05-16T06:44:57;8.27;;;1.83;;
16393;SDS011;8306;51.128;4.476;2023-05-16T06:47:24;5.37;;;1.60;;
16393;SDS011;8306;51.128;4.476;2023-05-16T06:49:50;4.53;;;1.43;;
16393;SDS011;8306;51.128;4.476;2023-05-16T06:52:17;2.90;;;1.47;;
16393;SDS011;8306;51.128;4.476;2023-05-16T06:54:43;4.97;;;1.33;;
16393;SDS011;8306;51.128;4.476;2023-05-16T06:57:10;3.43;;;1.10;;
16393;SDS011;8306;51.128;4.476;2023-05-16T06:59:36;3.10;;;1.30;;
16393;SDS011;8306;51.128;4.476;2023-05-16T07:02:03;3.40;;;1.27;;
16393;SDS011;8306;51.128;4.476;2023-05-16T07:04:29;2.80;;;1.03;;
16393;SDS011;8306;51.128;4.476;2023-05-16T07:06:55;4.67;;;1.60;;
16393;SDS011;8306;51.128;4.476;2023-05-16T07:09:22;4.37;;;1.50;;
16393;SDS011;8306;51.128;4.476;2023-05-16T07:11:48;3.07;;;1.50;;
16393;SDS011;8306;51.128;4.476;2023-05-16T07:14:15;3.83;;;1.60;;
16393;SDS011;8306;51.128;4.476;2023-05-16T07:16:41;4.90;;;1.47;;
16393;SDS011;8306;51.128;4.476;2023-05-16T07:19:08;4.30;;;1.50;;
16393;SDS011;8306;51.128;4.476;2023-05-16T07:21:34;5.90;;;1.70;;
16393;SDS011;8306;51.128;4.476;2023-05-16T07:24:01;3.23;;;1.27;;
16393;SDS011;8306;51.128;4.476;2023-05-16T07:26:27;3.80;;;1.43;;
16393;SDS011;8306;51.128;4.476;2023-05-16T07:28:54;4.10;;;1.20;;
16393;SDS011;8306;51.128;4.476;2023-05-16T07:31:20;4.23;;;1.63;;
16393;SDS011;8306;51.128;4.476;2023-05-16T07:33:47;7.27;;;1.63;;
16393;SDS011;8306;51.128;4.476;2023-05-16T07:36:13;4.50;;;1.43;;
16393;SDS011;8306;51.128;4.476;2023-05-16T07:38:40;4.17;;;1.30;;
16393;SDS011;8306;51.128;4.476;2023-05-16T07:41:06;5.03;;;1.30;;
16393;SDS011;8306;51.128;4.476;2023-05-16T07:43:33;3.20;;;1.13;;
16393;SDS011;8306;51.128;4.476;2023-05-16T07:45:59;4.53;;;1.30;;
16393;SDS011;8306;51.128;4.476;2023-05-16T07:48:26;3.87;;;1.30;;
16393;SDS011;8306;51.128;4.476;2023-05-16T07:50:52;3.93;;;1.30;;
16393;SDS011;8306;51.128;4.476;2023-05-16T07:53:19;5.00;;;1.60;;
16393;SDS011;8306;51.128;4.476;2023-05-16T07:55:45;5.13;;;1.20;;
16393;SDS011;8306;51.128;4.476;2023-05-16T07:58:11;5.77;;;1.23;;
16393;SDS011;8306;51.128;4.476;2023-05-16T08:00:38;8.20;;;1.63;;
16393;SDS011;8306;51.128;4.476;2023-05-16T08:03:04;2.70;;;1.30;;
16393;SDS011;8306;51.128;4.476;2023-05-16T08:05:31;5.83;;;1.43;;
16393;SDS011;8306;51.128;4.476;2023-05-16T08:07:57;2.87;;;1.37;;
16393;SDS011;8306;51.128;4.476;2023-05-16T08:10:24;2.47;;;1.07;;
16393;SDS011;8306;51.128;4.476;2023-05-16T08:12:50;2.77;;;1.40;;
16393;SDS011;8306;51.128;4.476;2023-05-16T08:15:17;3.33;;;1.40;;
16393;SDS011;8306;51.128;4.476;2023-05-16T08:17:43;3.53;;;1.40;;
16393;SDS011;8306;51.128;4.476;2023-05-16T08:20:10;3.27;;;1.37;;
16393;SDS011;8306;51.128;4.476;2023-05-16T08:22:36;2.80;;;1.30;;
16393;SDS011;8306;51.128;4.476;2023-05-16T08:25:03;4.00;;;1.00;;
16393;SDS011;8306;51.128;4.476;2023-05-16T08:27:29;3.27;;;1.00;;
16393;SDS011;8306;51.128;4.476;2023-05-16T08:29:56;3.53;;;1.20;;
16393;SDS011;8306;51.128;4.476;2023-05-16T08:32:22;3.40;;;0.93;;
16393;SDS011;8306;51.128;4.476;2023-05-16T08:34:49;3.07;;;1.10;;
16393;SDS011;8306;51.128;4.476;2023-05-16T08:37:15;3.40;;;1.00;;
16393;SDS011;8306;51.128;4.476;2023-05-16T08:39:42;2.90;;;1.00;;
16393;SDS011;8306;51.128;4.476;2023-05-16T08:42:08;1.83;;;0.90;;
16393;SDS011;8306;51.128;4.476;2023-05-16T08:44:35;2.80;;;1.00;;
16393;SDS011;8306;51.128;4.476;2023-05-16T08:47:06;2.37;;;0.97;;
16393;SDS011;8306;51.128;4.476;2023-05-16T08:49:28;3.00;;;1.00;;
16393;SDS011;8306;51.128;4.476;2023-05-16T08:51:56;3.10;;;1.10;;
16393;SDS011;8306;51.128;4.476;2023-05-16T08:54:21;2.43;;;1.10;;
16393;SDS011;8306;51.128;4.476;2023-05-16T08:56:47;3.53;;;1.10;;
16393;SDS011;8306;51.128;4.476;2023-05-16T08:59:14;4.43;;;1.20;;
16393;SDS011;8306;51.128;4.476;2023-05-16T09:01:40;1.80;;;0.90;;
16393;SDS011;8306;51.128;4.476;2023-05-16T09:04:07;3.70;;;1.20;;
16393;SDS011;8306;51.128;4.476;2023-05-16T09:06:33;2.43;;;1.00;;
16393;SDS011;8306;51.128;4.476;2023-05-16T09:08:59;2.33;;;1.00;;
16393;SDS011;8306;51.128;4.476;2023-05-16T09:11:26;2.97;;;0.80;;
16393;SDS011;8306;51.128;4.476;2023-05-16T09:13:52;3.97;;;1.40;;
16393;SDS011;8306;51.128;4.476;2023-05-16T09:16:19;3.57;;;1.30;;
16393;SDS011;8306;51.128;4.476;2023-05-16T09:18:51;4.10;;;1.10;;
16393;SDS011;8306;51.128;4.476;2023-05-16T09:21:12;2.90;;;1.10;;
16393;SDS011;8306;51.128;4.476;2023-05-16T09:23:39;3.97;;;1.50;;
16393;SDS011;8306;51.128;4.476;2023-05-16T09:26:05;3.90;;;1.27;;
16393;SDS011;8306;51.128;4.476;2023-05-16T09:28:31;4.57;;;1.43;;
16393;SDS011;8306;51.128;4.476;2023-05-16T09:30:58;4.17;;;1.17;;
16393;SDS011;8306;51.128;4.476;2023-05-16T09:33:27;2.63;;;1.00;;
16393;SDS011;8306;51.128;4.476;2023-05-16T09:35:54;3.07;;;1.40;;
16393;SDS011;8306;51.128;4.476;2023-05-16T09:38:20;5.23;;;1.87;;
16393;SDS011;8306;51.128;4.476;2023-05-16T09:40:46;2.87;;;0.90;;
16393;SDS011;8306;51.128;4.476;2023-05-16T09:43:14;2.00;;;1.00;;
16393;SDS011;8306;51.128;4.476;2023-05-16T09:45:39;3.57;;;1.10;;
16393;SDS011;8306;51.128;4.476;2023-05-16T09:48:06;2.70;;;1.13;;
16393;SDS011;8306;51.128;4.476;2023-05-16T09:50:33;2.23;;;1.00;;
16393;SDS011;8306;51.128;4.476;2023-05-16T09:52:59;2.17;;;1.13;;
16393;SDS011;8306;51.128;4.476;2023-05-16T09:55:25;4.57;;;1.37;;
16393;SDS011;8306;51.128;4.476;2023-05-16T09:57:52;1.93;;;1.00;;
16393;SDS011;8306;51.128;4.476;2023-05-16T10:00:18;1.13;;;0.77;;
16393;SDS011;8306;51.128;4.476;2023-05-16T10:02:45;2.43;;;0.80;;
16393;SDS011;8306;51.128;4.476;2023-05-16T10:05:11;0.60;;;0.60;;
16393;SDS011;8306;51.128;4.476;2023-05-16T10:07:38;3.23;;;0.87;;
16393;SDS011;8306;51.128;4.476;2023-05-16T10:10:04;3.10;;;1.07;;
16393;SDS011;8306;51.128;4.476;2023-05-16T10:12:30;2.17;;;0.97;;
16393;SDS011;8306;51.128;4.476;2023-05-16T10:14:58;4.67;;;1.10;;
16393;SDS011;8306;51.128;4.476;2023-05-16T10:17:23;4.00;;;1.20;;
16393;SDS011;8306;51.128;4.476;2023-05-16T10:19:50;3.73;;;1.40;;
16393;SDS011;8306;51.128;4.476;2023-05-16T10:22:16;3.67;;;1.10;;
16393;SDS011;8306;51.128;4.476;2023-05-16T10:24:47;3.13;;;1.47;;
16393;SDS011;8306;51.128;4.476;2023-05-16T10:27:09;3.23;;;1.00;;
16393;SDS011;8306;51.128;4.476;2023-05-16T10:29:36;3.17;;;1.10;;
16393;SDS011;8306;51.128;4.476;2023-05-16T10:32:02;2.47;;;1.17;;
16393;SDS011;8306;51.128;4.476;2023-05-16T10:34:29;2.23;;;1.00;;
16393;SDS011;8306;51.128;4.476;2023-05-16T10:36:55;3.70;;;1.20;;
16393;SDS011;8306;51.128;4.476;2023-05-16T10:39:22;2.67;;;1.00;;
16393;SDS011;8306;51.128;4.476;2023-05-16T10:41:48;2.67;;;0.80;;
16393;SDS011;8306;51.128;4.476;2023-05-16T10:44:15;2.47;;;0.93;;
16393;SDS011;8306;51.128;4.476;2023-05-16T10:46:41;1.90;;;1.00;;
16393;SDS011;8306;51.128;4.476;2023-05-16T10:49:23;2.67;;;0.90;;
16393;SDS011;8306;51.128;4.476;2023-05-16T10:52:08;4.27;;;1.10;;
16393;SDS011;8306;51.128;4.476;2023-05-16T10:54:37;2.67;;;0.93;;
16393;SDS011;8306;51.128;4.476;2023-05-16T10:57:10;4.13;;;1.50;;
16393;SDS011;8306;51.128;4.476;2023-05-16T10:59:45;3.83;;;1.20;;
16393;SDS011;8306;51.128;4.476;2023-05-16T11:02:21;1.77;;;0.80;;
16393;SDS011;8306;51.128;4.476;2023-05-16T11:04:50;3.77;;;1.13;;
16393;SDS011;8306;51.128;4.476;2023-05-16T11:07:19;4.60;;;1.20;;
16393;SDS011;8306;51.128;4.476;2023-05-16T11:09:45;3.97;;;1.40;;
16393;SDS011;8306;51.128;4.476;2023-05-16T11:12:11;2.50;;;1.10;;
16393;SDS011;8306;51.128;4.476;2023-05-16T11:14:39;5.00;;;1.60;;
16393;SDS011;8306;51.128;4.476;2023-05-16T11:17:14;2.30;;;0.90;;
16393;SDS011;8306;51.128;4.476;2023-05-16T11:19:49;2.93;;;1.13;;
16393;SDS011;8306;51.128;4.476;2023-05-16T11:27:26;2.33;;;0.90;;
16393;SDS011;8306;51.128;4.476;2023-05-16T11:29:52;3.10;;;1.00;;
16393;SDS011;8306;51.128;4.476;2023-05-16T11:32:19;4.90;;;1.17;;
16393;SDS011;8306;51.128;4.476;2023-05-16T11:34:45;3.40;;;1.20;;
16393;SDS011;8306;51.128;4.476;2023-05-16T11:37:11;3.00;;;0.87;;
16393;SDS011;8306;51.128;4.476;2023-05-16T11:39:38;2.83;;;1.30;;
16393;SDS011;8306;51.128;4.476;2023-05-16T11:42:04;2.67;;;0.93;;
16393;SDS011;8306;51.128;4.476;2023-05-16T11:44:31;2.90;;;0.97;;
16393;SDS011;8306;51.128;4.476;2023-05-16T11:46:58;2.23;;;1.10;;
16393;SDS011;8306;51.128;4.476;2023-05-16T11:49:23;1.90;;;0.93;;
16393;SDS011;8306;51.128;4.476;2023-05-16T11:51:50;2.03;;;1.03;;
16393;SDS011;8306;51.128;4.476;2023-05-16T11:54:16;2.90;;;1.07;;
16393;SDS011;8306;51.128;4.476;2023-05-16T11:56:43;2.63;;;1.00;;
16393;SDS011;8306;51.128;4.476;2023-05-16T11:59:09;2.63;;;1.03;;
16393;SDS011;8306;51.128;4.476;2023-05-16T12:01:36;2.47;;;0.90;;
16393;SDS011;8306;51.128;4.476;2023-05-16T12:04:11;3.47;;;1.00;;
16393;SDS011;8306;51.128;4.476;2023-05-16T12:06:38;2.50;;;0.80;;
16393;SDS011;8306;51.128;4.476;2023-05-16T12:09:05;3.60;;;1.03;;
16393;SDS011;8306;51.128;4.476;2023-05-16T12:11:40;2.97;;;1.00;;
16393;SDS011;8306;51.128;4.476;2023-05-16T12:14:09;5.17;;;0.93;;
16393;SDS011;8306;51.128;4.476;2023-05-16T12:16:32;3.87;;;1.20;;
16393;SDS011;8306;51.128;4.476;2023-05-16T12:18:59;2.63;;;0.90;;
16393;SDS011;8306;51.128;4.476;2023-05-16T12:21:25;4.57;;;1.20;;
16393;SDS011;8306;51.128;4.476;2023-05-16T12:23:54;3.90;;;0.90;;
16393;SDS011;8306;51.128;4.476;2023-05-16T12:26:24;2.43;;;1.13;;
16393;SDS011;8306;51.128;4.476;2023-05-16T12:28:52;3.73;;;0.90;;
16393;SDS011;8306;51.128;4.476;2023-05-16T12:31:19;2.50;;;0.97;;
16393;SDS011;8306;51.128;4.476;2023-05-16T12:33:45;2.43;;;0.90;;
16393;SDS011;8306;51.128;4.476;2023-05-16T12:36:12;3.53;;;1.10;;
16393;SDS011;8306;51.128;4.476;2023-05-16T12:38:38;2.60;;;1.13;;
16393;SDS011;8306;51.128;4.476;2023-05-16T12:41:05;3.40;;;1.20;;
16393;SDS011;8306;51.128;4.476;2023-05-16T12:43:31;2.50;;;1.03;;
16393;SDS011;8306;51.128;4.476;2023-05-16T12:45:58;2.83;;;0.97;;
16393;SDS011;8306;51.128;4.476;2023-05-16T12:48:33;2.73;;;1.13;;
16393;SDS011;8306;51.128;4.476;2023-05-16T12:51:07;6.07;;;1.20;;
16393;SDS011;8306;51.128;4.476;2023-05-16T12:53:23;3.83;;;0.90;;
16393;SDS011;8306;51.128;4.476;2023-05-16T12:55:50;3.47;;;1.10;;
16393;SDS011;8306;51.128;4.476;2023-05-16T12:58:16;2.87;;;1.10;;
16393;SDS011;8306;51.128;4.476;2023-05-16T13:00:43;4.73;;;1.30;;
16393;SDS011;8306;51.128;4.476;2023-05-16T13:03:09;4.37;;;1.13;;
16393;SDS011;8306;51.128;4.476;2023-05-16T13:05:36;1.77;;;1.10;;
16393;SDS011;8306;51.128;4.476;2023-05-16T13:08:02;4.03;;;1.37;;
16393;SDS011;8306;51.128;4.476;2023-05-16T13:10:29;3.73;;;1.17;;
16393;SDS011;8306;51.128;4.476;2023-05-16T13:12:55;2.37;;;1.00;;
16393;SDS011;8306;51.128;4.476;2023-05-16T13:15:22;3.83;;;1.20;;
16393;SDS011;8306;51.128;4.476;2023-05-16T13:17:48;2.63;;;1.27;;
16393;SDS011;8306;51.128;4.476;2023-05-16T13:20:15;1.93;;;0.87;;
16393;SDS011;8306;51.128;4.476;2023-05-16T13:22:41;2.50;;;1.07;;
16393;SDS011;8306;51.128;4.476;2023-05-16T13:25:08;3.17;;;1.00;;
16393;SDS011;8306;51.128;4.476;2023-05-16T13:27:34;3.93;;;1.50;;
16393;SDS011;8306;51.128;4.476;2023-05-16T13:30:01;1.63;;;1.00;;
16393;SDS011;8306;51.128;4.476;2023-05-16T13:32:27;2.73;;;0.90;;
16393;SDS011;8306;51.128;4.476;2023-05-16T13:34:54;2.57;;;1.10;;
16393;SDS011;8306;51.128;4.476;2023-05-16T13:37:20;2.07;;;0.90;;
16393;SDS011;8306;51.128;4.476;2023-05-16T13:39:47;2.60;;;0.83;;
16393;SDS011;8306;51.128;4.476;2023-05-16T13:42:13;2.80;;;1.00;;
16393;SDS011;8306;51.128;4.476;2023-05-16T13:44:40;3.53;;;1.20;;
16393;SDS011;8306;51.128;4.476;2023-05-16T13:47:07;3.13;;;0.97;;
16393;SDS011;8306;51.128;4.476;2023-05-16T13:49:33;2.90;;;1.03;;
16393;SDS011;8306;51.128;4.476;2023-05-16T13:51:59;2.23;;;0.90;;
16393;SDS011;8306;51.128;4.476;2023-05-16T13:54:26;2.30;;;0.63;;
16393;SDS011;8306;51.128;4.476;2023-05-16T13:56:52;2.60;;;0.70;;
16393;SDS011;8306;51.128;4.476;2023-05-16T13:59:18;7.47;;;0.87;;
16393;SDS011;8306;51.128;4.476;2023-05-16T14:01:45;1.93;;;0.50;;
16393;SDS011;8306;51.128;4.476;2023-05-16T14:04:11;3.27;;;0.70;;
16393;SDS011;8306;51.128;4.476;2023-05-16T14:06:38;2.33;;;0.80;;
16393;SDS011;8306;51.128;4.476;2023-05-16T14:09:04;1.70;;;0.90;;
16393;SDS011;8306;51.128;4.476;2023-05-16T14:11:31;1.70;;;0.80;;
16393;SDS011;8306;51.128;4.476;2023-05-16T14:13:57;2.00;;;1.00;;
16393;SDS011;8306;51.128;4.476;2023-05-16T14:16:24;2.23;;;0.70;;
16393;SDS011;8306;51.128;4.476;2023-05-16T14:18:50;3.63;;;1.00;;
16393;SDS011;8306;51.128;4.476;2023-05-16T14:21:17;2.17;;;0.97;;
16393;SDS011;8306;51.128;4.476;2023-05-16T14:23:43;2.77;;;1.00;;
16393;SDS011;8306;51.128;4.476;2023-05-16T14:26:10;2.23;;;0.80;;
16393;SDS011;8306;51.128;4.476;2023-05-16T14:28:36;0.93;;;0.60;;
16393;SDS011;8306;51.128;4.476;2023-05-16T14:31:03;3.53;;;1.03;;
16393;SDS011;8306;51.128;4.476;2023-05-16T14:33:29;2.47;;;0.93;;
16393;SDS011;8306;51.128;4.476;2023-05-16T14:35:56;2.60;;;0.70;;
16393;SDS011;8306;51.128;4.476;2023-05-16T14:38:22;1.27;;;0.53;;
16393;SDS011;8306;51.128;4.476;2023-05-16T14:40:49;2.33;;;0.80;;
16393;SDS011;8306;51.128;4.476;2023-05-16T14:43:15;2.13;;;0.90;;
16393;SDS011;8306;51.128;4.476;2023-05-16T14:45:41;3.80;;;1.00;;
16393;SDS011;8306;51.128;4.476;2023-05-16T14:48:08;2.13;;;1.00;;
16393;SDS011;8306;51.128;4.476;2023-05-16T14:50:34;5.00;;;0.80;;
16393;SDS011;8306;51.128;4.476;2023-05-16T14:53:01;2.30;;;0.70;;
16393;SDS011;8306;51.128;4.476;2023-05-16T14:55:27;1.67;;;0.67;;
16393;SDS011;8306;51.128;4.476;2023-05-16T14:57:54;1.37;;;0.60;;
16393;SDS011;8306;51.128;4.476;2023-05-16T15:00:22;1.93;;;0.60;;
16393;SDS011;8306;51.128;4.476;2023-05-16T15:02:47;2.37;;;0.90;;
16393;SDS011;8306;51.128;4.476;2023-05-16T15:05:13;1.87;;;0.80;;
16393;SDS011;8306;51.128;4.476;2023-05-16T15:07:40;4.67;;;0.90;;
16393;SDS011;8306;51.128;4.476;2023-05-16T15:10:06;2.13;;;0.90;;
16393;SDS011;8306;51.128;4.476;2023-05-16T15:12:33;2.90;;;1.07;;
16393;SDS011;8306;51.128;4.476;2023-05-16T15:14:59;1.70;;;0.60;;